Nearby METAR Reports

 

KSJC - San Jose, California, USA
Distance from station: NE 9mi, 14km
Updated: Fri, 20-May-2022 9:53am PDT
Few Clouds
Few Clouds
 Wind from WNW
Wind: WNW 14 mph , 22 km/h
Temperature: 64°F , 18°C
Dew Point: 34°F , 1°C
Humidity: 32%
Barometer: 29.83 inHg , 1010.2 hPa
Clouds: Few Clouds
Visibility: 10 miles , 16 km
Cloud details: Few Clouds 8000 ft
Few Clouds 11000 ft
Few Clouds 16000 ft
2022/05/20 16:53 KSJC 201653Z 30012KT 10SM FEW080 FEW110 FEW160 18/01 A2983 RMK AO2 SLP100 T01830006
KNUQ - Moffett Nas/Mtn, California, USA
Distance from station: N 9mi, 14km
Updated: Fri, 20-May-2022 10:35am PDT
Clear
Clear
 Wind from NNW
Wind: NNW 7 mph , 11 km/h, Gust: 15 mph , 24 km/h
Temperature: 66°F , 19°C
Dew Point: 30°F , -1°C
Humidity: 26%
Barometer: 29.83 inHg , 1010.2 hPa
Clouds: Clear
Visibility: 9 miles , 14 km
2022/05/20 17:35 KNUQ 201735Z AUTO 33006G13KT 9SM CLR 19/M01 A2983 RMK AO2
 
KPAO - Palo Alto, California, USA
Distance from station: NNW 14mi, 23km
Updated: Fri, 20-May-2022 8:47am PDT
NOT Current
Clear
Clear
 Wind from W
Wind: W 12 mph , 19 km/h
Temperature: 61°F , 16°C
Dew Point: 37°F , 3°C
Humidity: 42%
Barometer: 29.86 inHg , 1011.2 hPa
Clouds: Clear
Visibility: 10 miles , 16 km
2022/05/20 15:47 KPAO 201547Z 28010KT 10SM SKC 16/03 A2986 RMK CRANE 3.4NM SE PAO GPS MDA 580MSL
KRHV - San Jose/Reid, California, USA
Distance from station: ENE 12mi, 19km
Updated: Fri, 20-May-2022 8:50am PDT
NOT Current
Few Clouds
Few Clouds
 Wind from NW
Wind: NW 10 mph , 17 km/h
Temperature: 61°F , 16°C
Dew Point: 41°F , 5°C
Humidity: 48%
Barometer: 29.85 inHg , 1010.8 hPa
Clouds: Few Clouds
Visibility: 10 miles , 16 km
Cloud details: Few Clouds 8000 ft
2022/05/20 15:50 KRHV 201550Z 31009KT 10SM FEW080 16/05 A2985
 
KOAK - Oakland, California, USA
Distance from station: NNW 31mi, 50km
Updated: Fri, 20-May-2022 9:53am PDT
Few Clouds
Few Clouds
 Wind from WNW
Wind: WNW 14 mph , 22 km/h
Temperature: 64°F , 18°C
Dew Point: 37°F , 3°C
Humidity: 37%
Barometer: 29.84 inHg , 1010.5 hPa
Clouds: Few Clouds
Visibility: 10 miles , 16 km
Cloud details: Few Clouds 20000 ft
2022/05/20 16:53 KOAK 201653Z 30012KT 10SM FEW200 18/03 A2984 RMK AO2 SLP103 T01830028
KSQL - San Carlos Airpo, California, USA
Distance from station: NW 21mi, 34km
Updated: Fri, 20-May-2022 9:47am PDT
Few Clouds
Few Clouds
 Wind from NW
Wind: NW 8 mph , 13 km/h
Temperature: 64°F , 18°C
Dew Point: 28°F , -2°C
Humidity: 26%
Barometer: 29.86 inHg , 1011.2 hPa
Clouds: Few Clouds
Visibility: 10 miles , 16 km
Cloud details: Few Clouds 20000 ft
2022/05/20 16:47 KSQL 201647Z 32007KT 10SM FEW200 18/M02 A2986
 
KSFO - San Francisco, California, USA
Distance from station: NW 30mi, 49km
Updated: Fri, 20-May-2022 9:56am PDT
Few Clouds
Few Clouds
 Wind from NNW
Wind: NNW 6 mph , 9 km/h
Temperature: 64°F , 18°C
Dew Point: 37°F , 3°C
Humidity: 37%
Barometer: 29.84 inHg , 1010.5 hPa
Clouds: Few Clouds
Visibility: 10 miles , 16 km
Cloud details: Few Clouds 20000 ft
2022/05/20 16:56 KSFO 201656Z 34005KT 10SM FEW200 18/03 A2984 RMK AO2 SLP105 T01830033
KE16 - San Martin, California, USA
Distance from station: ESE 27mi, 43km
Updated: Fri, 20-May-2022 10:35am PDT
Clear
Clear
 Wind from NNW
Wind: NNW 12 mph , 19 km/h
Temperature: 66°F , 19°C
Dew Point: 36°F , 2°C
Humidity: 32%
Barometer: 29.84 inHg , 1010.5 hPa
Clouds: Clear
Visibility: 10 miles , 16 km
2022/05/20 17:35 KE16 201735Z AUTO 33010KT 10SM CLR 19/02 A2984 RMK AO2
 
KWVI - Watsonville, California, USA
Distance from station: SSE 27mi, 44km
Updated: Fri, 20-May-2022 9:53am PDT
Clear
Clear
 Wind from varies
Wind: varies 3 mph , 6 km/h
Temperature: 63°F , 17°C
Dew Point: 45°F , 7°C
Humidity: 52%
Barometer: 29.84 inHg , 1010.5 hPa
Clouds: Clear
Visibility: 10 miles , 16 km
2022/05/20 16:53 KWVI 201653Z AUTO VRB03KT 10SM CLR 17/07 A2984 RMK AO2 SLP103 T01670072
KHAF - Half Moon Bay, California, USA
Distance from station: WNW 31mi, 50km
Updated: Fri, 20-May-2022 10:35am PDT
Haze, Clear
Haze, Clear
 Wind from NNW
Wind: NNW 16 mph , 26 km/h, Gust: 22 mph , 35 km/h
Temperature: 57°F , 14°C
Dew Point: 45°F , 7°C
Humidity: 63%
Barometer: 29.86 inHg , 1011.2 hPa
Summary: Haze
Clouds: Clear
Visibility: 6 miles , 10 km
2022/05/20 17:35 KHAF 201735Z AUTO 33014G19KT 6SM HZ CLR 14/07 A2986 RMK AO2
 
KHWD - Hayward, California, USA
Distance from station: N 28mi, 44km
Updated: Fri, 20-May-2022 9:54am PDT
Clear
Clear
 Wind from NW
Wind: NW 5 mph , 7 km/h
Temperature: 66°F , 19°C
Dew Point: 34°F , 1°C
Humidity: 30%
Barometer: 29.83 inHg , 1010.2 hPa
Clouds: Clear
Visibility: 10 miles , 16 km
2022/05/20 16:54 KHWD 201654Z 32004KT 10SM CLR 19/01 A2983 RMK AO2 SLP108 T01940006
KLVK - Livermore, California, USA
Distance from station: NNE 31mi, 51km
Updated: Fri, 20-May-2022 9:53am PDT
Clear
Clear
 Wind from varies
Wind: varies 5 mph , 7 km/h
Temperature: 66°F , 19°C
Dew Point: 30°F , -1°C
Humidity: 26%
Barometer: 29.83 inHg , 1010.2 hPa
Clouds: Clear
Visibility: 10 miles , 16 km
2022/05/20 16:53 KLVK 201653Z VRB04KT 10SM CLR 19/M01 A2983 RMK AO2 SLP098 T01891011